sensor_id;sensor_type;location;lat;lon;timestamp;temperature;humidity
21171;DHT22;10743;52.160;20.910;2022-12-10T00:01:32;17.40;39.00
21171;DHT22;10743;52.160;20.910;2022-12-10T00:04:01;17.30;39.00
21171;DHT22;10743;52.160;20.910;2022-12-10T00:06:30;17.30;39.00
21171;DHT22;10743;52.160;20.910;2022-12-10T00:08:59;17.30;39.00
21171;DHT22;10743;52.160;20.910;2022-12-10T00:11:27;17.30;39.00
21171;DHT22;10743;52.160;20.910;2022-12-10T00:13:55;17.30;39.00
21171;DHT22;10743;52.160;20.910;2022-12-10T00:16:25;17.40;39.10
21171;DHT22;10743;52.160;20.910;2022-12-10T00:18:53;17.40;39.00
21171;DHT22;10743;52.160;20.910;2022-12-10T00:21:23;17.40;39.00
21171;DHT22;10743;52.160;20.910;2022-12-10T00:23:53;17.40;39.00
21171;DHT22;10743;52.160;20.910;2022-12-10T00:26:23;17.40;39.00
21171;DHT22;10743;52.160;20.910;2022-12-10T00:28:52;17.40;39.00
21171;DHT22;10743;52.160;20.910;2022-12-10T00:31:22;17.40;39.00
21171;DHT22;10743;52.160;20.910;2022-12-10T00:33:57;17.40;39.00
21171;DHT22;10743;52.160;20.910;2022-12-10T00:36:30;17.40;39.10
21171;DHT22;10743;52.160;20.910;2022-12-10T00:38:59;17.40;39.10
21171;DHT22;10743;52.160;20.910;2022-12-10T00:41:27;17.40;39.10
21171;DHT22;10743;52.160;20.910;2022-12-10T00:43:54;17.40;39.10
21171;DHT22;10743;52.160;20.910;2022-12-10T00:46:22;17.40;39.20
21171;DHT22;10743;52.160;20.910;2022-12-10T00:48:49;17.30;39.10
21171;DHT22;10743;52.160;20.910;2022-12-10T00:51:20;17.40;39.20
21171;DHT22;10743;52.160;20.910;2022-12-10T00:53:50;17.30;39.10
21171;DHT22;10743;52.160;20.910;2022-12-10T00:56:21;17.30;39.10
21171;DHT22;10743;52.160;20.910;2022-12-10T00:58:50;17.30;39.20
21171;DHT22;10743;52.160;20.910;2022-12-10T01:01:24;17.40;39.20
21171;DHT22;10743;52.160;20.910;2022-12-10T01:03:56;17.30;39.10
21171;DHT22;10743;52.160;20.910;2022-12-10T01:06:31;17.40;39.20
21171;DHT22;10743;52.160;20.910;2022-12-10T01:09:03;17.30;39.20
21171;DHT22;10743;52.160;20.910;2022-12-10T01:11:38;17.30;39.20
21171;DHT22;10743;52.160;20.910;2022-12-10T01:14:08;17.30;39.20
21171;DHT22;10743;52.160;20.910;2022-12-10T01:16:37;17.30;39.20
21171;DHT22;10743;52.160;20.910;2022-12-10T01:19:04;17.30;39.20
21171;DHT22;10743;52.160;20.910;2022-12-10T01:21:33;17.30;39.20
21171;DHT22;10743;52.160;20.910;2022-12-10T01:24:01;17.30;39.20
21171;DHT22;10743;52.160;20.910;2022-12-10T01:26:30;17.30;39.20
21171;DHT22;10743;52.160;20.910;2022-12-10T01:29:01;17.30;39.20
21171;DHT22;10743;52.160;20.910;2022-12-10T01:31:32;17.30;39.20
21171;DHT22;10743;52.160;20.910;2022-12-10T01:34:01;17.30;39.20
21171;DHT22;10743;52.160;20.910;2022-12-10T01:36:33;17.30;39.20
21171;DHT22;10743;52.160;20.910;2022-12-10T01:39:05;17.30;39.20
21171;DHT22;10743;52.160;20.910;2022-12-10T01:41:37;17.30;39.20
21171;DHT22;10743;52.160;20.910;2022-12-10T01:46:42;17.30;39.20
21171;DHT22;10743;52.160;20.910;2022-12-10T01:49:14;17.30;39.20
21171;DHT22;10743;52.160;20.910;2022-12-10T01:52:01;17.30;39.20
21171;DHT22;10743;52.160;20.910;2022-12-10T01:54:34;17.30;39.20
21171;DHT22;10743;52.160;20.910;2022-12-10T01:57:09;17.30;39.20
21171;DHT22;10743;52.160;20.910;2022-12-10T01:59:38;17.30;39.20
21171;DHT22;10743;52.160;20.910;2022-12-10T02:07:57;17.30;39.20
21171;DHT22;10743;52.160;20.910;2022-12-10T02:10:59;17.30;39.20
21171;DHT22;10743;52.160;20.910;2022-12-10T02:13:41;17.30;39.20
21171;DHT22;10743;52.160;20.910;2022-12-10T02:16:18;17.30;39.20
21171;DHT22;10743;52.160;20.910;2022-12-10T02:21:44;17.30;39.20
21171;DHT22;10743;52.160;20.910;2022-12-10T02:24:17;17.30;39.20
21171;DHT22;10743;52.160;20.910;2022-12-10T02:27:18;17.30;39.20
21171;DHT22;10743;52.160;20.910;2022-12-10T02:29:49;17.30;39.20
21171;DHT22;10743;52.160;20.910;2022-12-10T02:32:33;17.30;39.20
21171;DHT22;10743;52.160;20.910;2022-12-10T02:35:07;17.30;39.20
21171;DHT22;10743;52.160;20.910;2022-12-10T02:37:49;17.30;39.20
21171;DHT22;10743;52.160;20.910;2022-12-10T02:40:28;17.30;39.20
21171;DHT22;10743;52.160;20.910;2022-12-10T02:43:00;17.30;39.20
21171;DHT22;10743;52.160;20.910;2022-12-10T02:45:28;17.30;39.20
21171;DHT22;10743;52.160;20.910;2022-12-10T02:47:59;17.30;39.20
21171;DHT22;10743;52.160;20.910;2022-12-10T02:50:33;17.30;39.20
21171;DHT22;10743;52.160;20.910;2022-12-10T02:53:02;17.30;39.20
21171;DHT22;10743;52.160;20.910;2022-12-10T03:04:24;17.30;39.20
21171;DHT22;10743;52.160;20.910;2022-12-10T03:06:58;17.30;39.20
21171;DHT22;10743;52.160;20.910;2022-12-10T03:09:36;17.30;39.20
21171;DHT22;10743;52.160;20.910;2022-12-10T03:12:33;17.30;39.20
21171;DHT22;10743;52.160;20.910;2022-12-10T03:15:02;17.30;39.20
21171;DHT22;10743;52.160;20.910;2022-12-10T03:17:32;17.30;39.10
21171;DHT22;10743;52.160;20.910;2022-12-10T03:20:00;17.40;39.20
21171;DHT22;10743;52.160;20.910;2022-12-10T03:22:29;17.40;39.20
21171;DHT22;10743;52.160;20.910;2022-12-10T03:24:58;17.30;39.20
21171;DHT22;10743;52.160;20.910;2022-12-10T03:27:27;17.40;39.20
21171;DHT22;10743;52.160;20.910;2022-12-10T03:29:57;17.30;39.10
21171;DHT22;10743;52.160;20.910;2022-12-10T03:32:27;17.30;38.50
21171;DHT22;10743;52.160;20.910;2022-12-10T03:34:56;17.30;39.20
21171;DHT22;10743;52.160;20.910;2022-12-10T03:37:26;17.30;39.10
21171;DHT22;10743;52.160;20.910;2022-12-10T03:39:55;17.30;38.50
21171;DHT22;10743;52.160;20.910;2022-12-10T03:42:23;17.30;39.20
21171;DHT22;10743;52.160;20.910;2022-12-10T03:44:51;17.40;44.30
21171;DHT22;10743;52.160;20.910;2022-12-10T03:47:19;17.30;39.20
21171;DHT22;10743;52.160;20.910;2022-12-10T03:49:46;17.30;39.20
21171;DHT22;10743;52.160;20.910;2022-12-10T03:52:13;17.30;39.20
21171;DHT22;10743;52.160;20.910;2022-12-10T03:54:40;17.30;39.20
21171;DHT22;10743;52.160;20.910;2022-12-10T03:57:08;17.30;39.10
21171;DHT22;10743;52.160;20.910;2022-12-10T03:59:35;17.30;39.10
21171;DHT22;10743;52.160;20.910;2022-12-10T04:02:02;17.30;39.20
21171;DHT22;10743;52.160;20.910;2022-12-10T04:04:30;17.30;39.10
21171;DHT22;10743;52.160;20.910;2022-12-10T04:06:57;17.30;39.00
21171;DHT22;10743;52.160;20.910;2022-12-10T04:09:24;17.30;39.10
21171;DHT22;10743;52.160;20.910;2022-12-10T04:11:55;17.30;39.10
21171;DHT22;10743;52.160;20.910;2022-12-10T04:14:24;17.30;39.00
21171;DHT22;10743;52.160;20.910;2022-12-10T04:17:10;17.30;39.00
21171;DHT22;10743;52.160;20.910;2022-12-10T04:19:37;17.30;39.00
21171;DHT22;10743;52.160;20.910;2022-12-10T04:22:04;17.30;39.00
21171;DHT22;10743;52.160;20.910;2022-12-10T04:24:50;17.30;39.10
21171;DHT22;10743;52.160;20.910;2022-12-10T04:27:55;17.20;39.00
21171;DHT22;10743;52.160;20.910;2022-12-10T04:30:22;17.20;39.00
21171;DHT22;10743;52.160;20.910;2022-12-10T04:32:49;17.20;39.10
21171;DHT22;10743;52.160;20.910;2022-12-10T04:35:16;17.20;39.20
21171;DHT22;10743;52.160;20.910;2022-12-10T04:37:43;17.20;39.20
21171;DHT22;10743;52.160;20.910;2022-12-10T04:40:11;17.20;39.20
21171;DHT22;10743;52.160;20.910;2022-12-10T04:42:38;17.20;39.10
21171;DHT22;10743;52.160;20.910;2022-12-10T04:45:05;17.20;39.10
21171;DHT22;10743;52.160;20.910;2022-12-10T04:47:32;17.20;39.10
21171;DHT22;10743;52.160;20.910;2022-12-10T04:49:59;17.20;39.20
21171;DHT22;10743;52.160;20.910;2022-12-10T04:52:26;17.10;39.20
21171;DHT22;10743;52.160;20.910;2022-12-10T04:54:53;17.20;39.20
21171;DHT22;10743;52.160;20.910;2022-12-10T04:57:20;17.20;39.20
21171;DHT22;10743;52.160;20.910;2022-12-10T05:02:15;17.20;38.60
21171;DHT22;10743;52.160;20.910;2022-12-10T05:04:42;17.10;39.20
21171;DHT22;10743;52.160;20.910;2022-12-10T05:07:09;17.20;39.20
21171;DHT22;10743;52.160;20.910;2022-12-10T05:09:37;17.20;39.20
21171;DHT22;10743;52.160;20.910;2022-12-10T05:12:05;17.20;39.20
21171;DHT22;10743;52.160;20.910;2022-12-10T05:14:32;17.20;39.20
21171;DHT22;10743;52.160;20.910;2022-12-10T05:16:59;17.20;39.20
21171;DHT22;10743;52.160;20.910;2022-12-10T05:19:26;17.20;39.20
21171;DHT22;10743;52.160;20.910;2022-12-10T05:24:39;17.20;38.60
21171;DHT22;10743;52.160;20.910;2022-12-10T05:27:06;17.20;39.20
21171;DHT22;10743;52.160;20.910;2022-12-10T05:32:02;17.20;38.60
21171;DHT22;10743;52.160;20.910;2022-12-10T05:34:31;17.20;39.20
21171;DHT22;10743;52.160;20.910;2022-12-10T05:36:58;17.20;39.20
21171;DHT22;10743;52.160;20.910;2022-12-10T05:39:25;17.20;39.20
21171;DHT22;10743;52.160;20.910;2022-12-10T05:41:52;17.20;39.20
21171;DHT22;10743;52.160;20.910;2022-12-10T05:44:19;17.20;39.20
21171;DHT22;10743;52.160;20.910;2022-12-10T05:46:47;17.20;39.20
21171;DHT22;10743;52.160;20.910;2022-12-10T05:49:14;17.20;39.10
21171;DHT22;10743;52.160;20.910;2022-12-10T05:51:41;17.20;39.10
21171;DHT22;10743;52.160;20.910;2022-12-10T05:54:09;17.20;39.20
21171;DHT22;10743;52.160;20.910;2022-12-10T05:56:36;17.10;42.30
21171;DHT22;10743;52.160;20.910;2022-12-10T05:59:05;17.20;39.10
21171;DHT22;10743;52.160;20.910;2022-12-10T06:01:40;17.20;39.10
21171;DHT22;10743;52.160;20.910;2022-12-10T06:04:08;17.30;39.10
21171;DHT22;10743;52.160;20.910;2022-12-10T06:06:37;17.20;39.10
21171;DHT22;10743;52.160;20.910;2022-12-10T06:09:06;17.30;38.50
21171;DHT22;10743;52.160;20.910;2022-12-10T06:11:35;17.20;39.10
21171;DHT22;10743;52.160;20.910;2022-12-10T06:14:01;17.30;39.10
21171;DHT22;10743;52.160;20.910;2022-12-10T06:16:29;17.30;39.00
21171;DHT22;10743;52.160;20.910;2022-12-10T06:18:56;17.30;39.00
21171;DHT22;10743;52.160;20.910;2022-12-10T06:21:24;17.30;38.90
21171;DHT22;10743;52.160;20.910;2022-12-10T06:23:51;17.30;38.80
21171;DHT22;10743;52.160;20.910;2022-12-10T06:26:21;17.20;38.70
21171;DHT22;10743;52.160;20.910;2022-12-10T06:28:50;17.20;38.30
21171;DHT22;10743;52.160;20.910;2022-12-10T06:31:19;17.20;38.90
21171;DHT22;10743;52.160;20.910;2022-12-10T06:33:47;17.20;38.90
21171;DHT22;10743;52.160;20.910;2022-12-10T06:36:15;17.20;39.00
21171;DHT22;10743;52.160;20.910;2022-12-10T06:41:13;17.20;38.40
21171;DHT22;10743;52.160;20.910;2022-12-10T06:46:12;17.20;38.40
21171;DHT22;10743;52.160;20.910;2022-12-10T06:48:41;17.10;39.50
21171;DHT22;10743;52.160;20.910;2022-12-10T06:51:09;17.20;38.40
21171;DHT22;10743;52.160;20.910;2022-12-10T06:56:06;17.20;38.40
21171;DHT22;10743;52.160;20.910;2022-12-10T06:58:34;17.20;39.00
21171;DHT22;10743;52.160;20.910;2022-12-10T07:01:07;17.20;39.00
21171;DHT22;10743;52.160;20.910;2022-12-10T07:06:06;17.20;38.40
21171;DHT22;10743;52.160;20.910;2022-12-10T07:11:08;17.20;38.40
21171;DHT22;10743;52.160;20.910;2022-12-10T07:13:36;17.20;38.90
21171;DHT22;10743;52.160;20.910;2022-12-10T07:16:30;17.20;38.90
21171;DHT22;10743;52.160;20.910;2022-12-10T07:19:00;17.20;38.80
21171;DHT22;10743;52.160;20.910;2022-12-10T07:21:29;17.20;38.80
21171;DHT22;10743;52.160;20.910;2022-12-10T07:24:01;17.20;38.70
21171;DHT22;10743;52.160;20.910;2022-12-10T07:26:33;17.20;38.80
21171;DHT22;10743;52.160;20.910;2022-12-10T07:29:03;17.20;38.80
21171;DHT22;10743;52.160;20.910;2022-12-10T07:31:32;17.20;38.90
21171;DHT22;10743;52.160;20.910;2022-12-10T07:34:00;17.20;38.90
21171;DHT22;10743;52.160;20.910;2022-12-10T07:36:27;17.10;39.60
21171;DHT22;10743;52.160;20.910;2022-12-10T07:38:55;17.10;39.00
21171;DHT22;10743;52.160;20.910;2022-12-10T07:41:23;17.10;39.00
21171;DHT22;10743;52.160;20.910;2022-12-10T07:43:51;17.10;39.00
21171;DHT22;10743;52.160;20.910;2022-12-10T07:46:25;17.20;39.10
21171;DHT22;10743;52.160;20.910;2022-12-10T07:48:54;17.10;39.10
21171;DHT22;10743;52.160;20.910;2022-12-10T07:51:22;17.10;39.10
21171;DHT22;10743;52.160;20.910;2022-12-10T07:53:53;17.10;39.20
21171;DHT22;10743;52.160;20.910;2022-12-10T07:56:21;17.10;39.20
21171;DHT22;10743;52.160;20.910;2022-12-10T07:58:50;17.10;39.20
21171;DHT22;10743;52.160;20.910;2022-12-10T08:01:21;17.10;39.20
21171;DHT22;10743;52.160;20.910;2022-12-10T08:03:53;17.10;38.70
21171;DHT22;10743;52.160;20.910;2022-12-10T08:06:23;17.10;39.30
21171;DHT22;10743;52.160;20.910;2022-12-10T08:08:52;17.10;39.30
21171;DHT22;10743;52.160;20.910;2022-12-10T08:11:21;17.10;39.20
21171;DHT22;10743;52.160;20.910;2022-12-10T08:13:49;17.20;39.20
21171;DHT22;10743;52.160;20.910;2022-12-10T08:16:24;17.20;39.20
21171;DHT22;10743;52.160;20.910;2022-12-10T08:18:53;17.20;39.20
21171;DHT22;10743;52.160;20.910;2022-12-10T08:21:24;17.20;39.20
21171;DHT22;10743;52.160;20.910;2022-12-10T08:23:53;17.20;39.30
21171;DHT22;10743;52.160;20.910;2022-12-10T08:26:23;17.20;39.30
21171;DHT22;10743;52.160;20.910;2022-12-10T08:28:53;17.20;39.20
21171;DHT22;10743;52.160;20.910;2022-12-10T08:31:23;17.20;39.20
21171;DHT22;10743;52.160;20.910;2022-12-10T08:33:51;17.20;39.20
21171;DHT22;10743;52.160;20.910;2022-12-10T08:36:19;16.30;39.20
21171;DHT22;10743;52.160;20.910;2022-12-10T08:38:46;17.20;39.30
21171;DHT22;10743;52.160;20.910;2022-12-10T08:41:16;17.20;39.20
21171;DHT22;10743;52.160;20.910;2022-12-10T08:46:14;17.20;38.60
21171;DHT22;10743;52.160;20.910;2022-12-10T08:48:41;17.20;39.20
21171;DHT22;10743;52.160;20.910;2022-12-10T08:51:11;17.30;39.20
21171;DHT22;10743;52.160;20.910;2022-12-10T08:53:41;17.30;39.20
21171;DHT22;10743;52.160;20.910;2022-12-10T08:56:08;17.30;39.20
21171;DHT22;10743;52.160;20.910;2022-12-10T08:58:36;17.30;39.20
21171;DHT22;10743;52.160;20.910;2022-12-10T09:01:15;17.30;39.20
21171;DHT22;10743;52.160;20.910;2022-12-10T09:03:44;17.30;39.10
21171;DHT22;10743;52.160;20.910;2022-12-10T09:06:14;17.30;39.10
21171;DHT22;10743;52.160;20.910;2022-12-10T09:08:43;17.30;39.10
21171;DHT22;10743;52.160;20.910;2022-12-10T09:11:19;17.30;39.10
21171;DHT22;10743;52.160;20.910;2022-12-10T09:13:48;17.30;39.10
21171;DHT22;10743;52.160;20.910;2022-12-10T09:16:16;17.30;39.20
21171;DHT22;10743;52.160;20.910;2022-12-10T09:18:43;17.30;39.20
21171;DHT22;10743;52.160;20.910;2022-12-10T09:21:16;17.30;39.20
21171;DHT22;10743;52.160;20.910;2022-12-10T09:26:14;17.30;38.60
21171;DHT22;10743;52.160;20.910;2022-12-10T09:28:43;17.30;39.20
21171;DHT22;10743;52.160;20.910;2022-12-10T09:31:11;17.30;38.60
21171;DHT22;10743;52.160;20.910;2022-12-10T09:33:47;17.30;38.60
21171;DHT22;10743;52.160;20.910;2022-12-10T09:38:44;17.40;38.60
21171;DHT22;10743;52.160;20.910;2022-12-10T09:46:59;17.50;38.50
21171;DHT22;10743;52.160;20.910;2022-12-10T09:52:40;17.50;39.00
21171;DHT22;10743;52.160;20.910;2022-12-10T09:55:15;17.50;39.00
21171;DHT22;10743;52.160;20.910;2022-12-10T09:57:51;17.50;39.00
21171;DHT22;10743;52.160;20.910;2022-12-10T10:00:30;17.40;38.90
21171;DHT22;10743;52.160;20.910;2022-12-10T10:03:02;17.40;39.00
21171;DHT22;10743;52.160;20.910;2022-12-10T10:05:45;17.50;38.90
21171;DHT22;10743;52.160;20.910;2022-12-10T10:10:44;17.40;39.00
21171;DHT22;10743;52.160;20.910;2022-12-10T10:16:35;17.40;39.10
21171;DHT22;10743;52.160;20.910;2022-12-10T10:19:09;17.40;39.10
21171;DHT22;10743;52.160;20.910;2022-12-10T10:21:47;17.40;38.50
21171;DHT22;10743;52.160;20.910;2022-12-10T10:24:24;17.50;38.50
21171;DHT22;10743;52.160;20.910;2022-12-10T10:26:57;17.40;39.10
21171;DHT22;10743;52.160;20.910;2022-12-10T10:29:25;17.50;39.10
21171;DHT22;10743;52.160;20.910;2022-12-10T10:32:13;17.50;39.10
21171;DHT22;10743;52.160;20.910;2022-12-10T10:34:41;17.50;39.10
21171;DHT22;10743;52.160;20.910;2022-12-10T10:37:22;17.50;39.20
21171;DHT22;10743;52.160;20.910;2022-12-10T10:42:42;17.50;38.60
21171;DHT22;10743;52.160;20.910;2022-12-10T10:45:42;17.50;39.20
21171;DHT22;10743;52.160;20.910;2022-12-10T10:48:18;17.50;39.10
21171;DHT22;10743;52.160;20.910;2022-12-10T10:53:49;17.50;39.00
21171;DHT22;10743;52.160;20.910;2022-12-10T10:56:27;17.50;39.00
21171;DHT22;10743;52.160;20.910;2022-12-10T11:01:48;17.50;38.90
21171;DHT22;10743;52.160;20.910;2022-12-10T11:04:24;17.60;39.00
21171;DHT22;10743;52.160;20.910;2022-12-10T11:07:00;17.60;39.00
21171;DHT22;10743;52.160;20.910;2022-12-10T11:09:31;17.60;38.90
21171;DHT22;10743;52.160;20.910;2022-12-10T11:14:38;17.60;38.90
21171;DHT22;10743;52.160;20.910;2022-12-10T11:20:15;17.60;38.90
21171;DHT22;10743;52.160;20.910;2022-12-10T11:22:59;17.60;38.90
21171;DHT22;10743;52.160;20.910;2022-12-10T11:26:02;17.60;38.90
21171;DHT22;10743;52.160;20.910;2022-12-10T11:28:42;17.60;38.90
21171;DHT22;10743;52.160;20.910;2022-12-10T11:44:07;17.70;38.90
21171;DHT22;10743;52.160;20.910;2022-12-10T11:46:29;17.70;38.80
21171;DHT22;10743;52.160;20.910;2022-12-10T11:55:25;17.70;38.80
21171;DHT22;10743;52.160;20.910;2022-12-10T12:00:53;17.70;38.80
21171;DHT22;10743;52.160;20.910;2022-12-10T12:03:43;17.70;38.80
21171;DHT22;10743;52.160;20.910;2022-12-10T12:14:48;17.70;38.90
21171;DHT22;10743;52.160;20.910;2022-12-10T12:17:34;17.70;38.90
21171;DHT22;10743;52.160;20.910;2022-12-10T12:20:25;17.80;38.80
21171;DHT22;10743;52.160;20.910;2022-12-10T12:23:13;17.80;38.80
21171;DHT22;10743;52.160;20.910;2022-12-10T12:25:47;17.80;38.80
21171;DHT22;10743;52.160;20.910;2022-12-10T12:28:39;17.80;38.70
21171;DHT22;10743;52.160;20.910;2022-12-10T12:31:09;17.70;39.30
21171;DHT22;10743;52.160;20.910;2022-12-10T12:36:43;17.80;38.60
21171;DHT22;10743;52.160;20.910;2022-12-10T12:45:27;17.70;38.60
21171;DHT22;10743;52.160;20.910;2022-12-10T12:48:26;17.70;38.60
21171;DHT22;10743;52.160;20.910;2022-12-10T12:51:03;17.80;38.60
21171;DHT22;10743;52.160;20.910;2022-12-10T12:53:34;17.70;38.60
21171;DHT22;10743;52.160;20.910;2022-12-10T12:56:07;17.70;38.60
21171;DHT22;10743;52.160;20.910;2022-12-10T12:58:48;17.70;38.70
21171;DHT22;10743;52.160;20.910;2022-12-10T13:04:11;17.70;38.10
21171;DHT22;10743;52.160;20.910;2022-12-10T13:06:39;17.70;38.70
21171;DHT22;10743;52.160;20.910;2022-12-10T13:09:24;17.80;38.70
21171;DHT22;10743;52.160;20.910;2022-12-10T13:19:41;17.70;39.20
21171;DHT22;10743;52.160;20.910;2022-12-10T13:22:38;17.70;38.50
21171;DHT22;10743;52.160;20.910;2022-12-10T13:25:16;17.70;38.50
21171;DHT22;10743;52.160;20.910;2022-12-10T13:27:57;17.70;38.50
21171;DHT22;10743;52.160;20.910;2022-12-10T13:33:47;17.70;39.30
21171;DHT22;10743;52.160;20.910;2022-12-10T13:36:27;17.70;38.60
21171;DHT22;10743;52.160;20.910;2022-12-10T13:41:34;17.70;38.60
21171;DHT22;10743;52.160;20.910;2022-12-10T13:50:16;17.70;38.60
21171;DHT22;10743;52.160;20.910;2022-12-10T13:58:42;17.70;38.60
21171;DHT22;10743;52.160;20.910;2022-12-10T14:06:48;17.70;38.60
21171;DHT22;10743;52.160;20.910;2022-12-10T14:09:23;17.70;38.60
21171;DHT22;10743;52.160;20.910;2022-12-10T14:11:54;17.70;38.60
21171;DHT22;10743;52.160;20.910;2022-12-10T14:14:34;17.70;38.70
21171;DHT22;10743;52.160;20.910;2022-12-10T14:17:18;17.70;38.70
21171;DHT22;10743;52.160;20.910;2022-12-10T14:19:48;17.70;38.70
21171;DHT22;10743;52.160;20.910;2022-12-10T14:22:21;17.70;38.70
21171;DHT22;10743;52.160;20.910;2022-12-10T14:24:59;17.70;38.70
21171;DHT22;10743;52.160;20.910;2022-12-10T14:27:28;17.70;38.60
21171;DHT22;10743;52.160;20.910;2022-12-10T14:30:04;17.70;38.50
21171;DHT22;10743;52.160;20.910;2022-12-10T14:32:45;17.70;38.40
21171;DHT22;10743;52.160;20.910;2022-12-10T14:35:22;17.70;38.50
21171;DHT22;10743;52.160;20.910;2022-12-10T14:37:53;17.60;38.40
21171;DHT22;10743;52.160;20.910;2022-12-10T14:40:25;17.60;38.50
21171;DHT22;10743;52.160;20.910;2022-12-10T14:43:02;17.60;38.00
21171;DHT22;10743;52.160;20.910;2022-12-10T14:45:42;17.60;38.50
21171;DHT22;10743;52.160;20.910;2022-12-10T14:48:13;17.60;38.50
21171;DHT22;10743;52.160;20.910;2022-12-10T14:50:44;17.60;38.60
21171;DHT22;10743;52.160;20.910;2022-12-10T14:53:16;17.60;38.50
21171;DHT22;10743;52.160;20.910;2022-12-10T14:56:01;17.60;38.50
21171;DHT22;10743;52.160;20.910;2022-12-10T14:58:39;17.60;38.40
21171;DHT22;10743;52.160;20.910;2022-12-10T15:01:17;17.60;38.30
21171;DHT22;10743;52.160;20.910;2022-12-10T15:03:53;18.20;38.90
21171;DHT22;10743;52.160;20.910;2022-12-10T15:06:21;17.60;38.40
21171;DHT22;10743;52.160;20.910;2022-12-10T15:08:49;17.50;38.40
21171;DHT22;10743;52.160;20.910;2022-12-10T15:11:18;17.50;38.40
21171;DHT22;10743;52.160;20.910;2022-12-10T15:13:48;17.50;38.50
21171;DHT22;10743;52.160;20.910;2022-12-10T15:16:38;17.50;38.50
21171;DHT22;10743;52.160;20.910;2022-12-10T15:21:47;17.50;39.10
21171;DHT22;10743;52.160;20.910;2022-12-10T15:24:19;17.60;40.50
21171;DHT22;10743;52.160;20.910;2022-12-10T15:26:50;17.50;37.90
21171;DHT22;10743;52.160;20.910;2022-12-10T15:31:56;17.50;38.30
21171;DHT22;10743;52.160;20.910;2022-12-10T15:34:34;17.50;38.30
21171;DHT22;10743;52.160;20.910;2022-12-10T15:37:06;17.50;38.30
21171;DHT22;10743;52.160;20.910;2022-12-10T15:39:52;17.50;38.30
21171;DHT22;10743;52.160;20.910;2022-12-10T15:42:39;17.50;40.00
21171;DHT22;10743;52.160;20.910;2022-12-10T15:45:23;17.60;39.90
21171;DHT22;10743;52.160;20.910;2022-12-10T15:47:57;17.50;39.00
21171;DHT22;10743;52.160;20.910;2022-12-10T15:50:28;17.50;38.30
21171;DHT22;10743;52.160;20.910;2022-12-10T15:52:55;17.50;38.30
21171;DHT22;10743;52.160;20.910;2022-12-10T15:57:50;17.60;42.10
21171;DHT22;10743;52.160;20.910;2022-12-10T16:00:23;17.50;38.20
21171;DHT22;10743;52.160;20.910;2022-12-10T16:02:59;17.50;41.10
21171;DHT22;10743;52.160;20.910;2022-12-10T16:05:31;17.60;38.20
21171;DHT22;10743;52.160;20.910;2022-12-10T16:08:25;17.60;38.10
21171;DHT22;10743;52.160;20.910;2022-12-10T16:10:57;17.60;38.00
21171;DHT22;10743;52.160;20.910;2022-12-10T16:13:35;17.60;38.00
21171;DHT22;10743;52.160;20.910;2022-12-10T16:16:08;17.50;37.90
21171;DHT22;10743;52.160;20.910;2022-12-10T16:18:37;17.50;37.90
21171;DHT22;10743;52.160;20.910;2022-12-10T16:21:05;17.50;38.00
21171;DHT22;10743;52.160;20.910;2022-12-10T16:23:34;17.60;39.20
21171;DHT22;10743;52.160;20.910;2022-12-10T16:26:04;17.50;38.00
21171;DHT22;10743;52.160;20.910;2022-12-10T16:31:10;17.50;37.40
21171;DHT22;10743;52.160;20.910;2022-12-10T16:33:38;17.50;38.00
21171;DHT22;10743;52.160;20.910;2022-12-10T16:36:05;17.50;38.50
21171;DHT22;10743;52.160;20.910;2022-12-10T16:38:32;17.50;37.90
21171;DHT22;10743;52.160;20.910;2022-12-10T16:41:00;17.50;37.90
21171;DHT22;10743;52.160;20.910;2022-12-10T16:43:29;17.50;37.90
21171;DHT22;10743;52.160;20.910;2022-12-10T16:45:57;17.50;37.90
21171;DHT22;10743;52.160;20.910;2022-12-10T16:48:24;17.50;37.90
21171;DHT22;10743;52.160;20.910;2022-12-10T16:50:52;17.40;37.30
21171;DHT22;10743;52.160;20.910;2022-12-10T16:53:29;17.40;38.50
21171;DHT22;10743;52.160;20.910;2022-12-10T16:56:01;17.40;37.80
21171;DHT22;10743;52.160;20.910;2022-12-10T16:58:28;17.40;37.90
21171;DHT22;10743;52.160;20.910;2022-12-10T17:00:55;17.40;37.90
21171;DHT22;10743;52.160;20.910;2022-12-10T17:03:24;17.40;37.90
21171;DHT22;10743;52.160;20.910;2022-12-10T17:05:59;17.40;37.90
21171;DHT22;10743;52.160;20.910;2022-12-10T17:08:29;17.40;37.90
21171;DHT22;10743;52.160;20.910;2022-12-10T17:10:57;17.40;37.90
21171;DHT22;10743;52.160;20.910;2022-12-10T17:13:44;17.30;37.80
21171;DHT22;10743;52.160;20.910;2022-12-10T17:16:21;17.30;37.90
21171;DHT22;10743;52.160;20.910;2022-12-10T17:18:49;17.30;38.00
21171;DHT22;10743;52.160;20.910;2022-12-10T17:21:16;17.30;38.10
21171;DHT22;10743;52.160;20.910;2022-12-10T17:26:25;17.30;37.60
21171;DHT22;10743;52.160;20.910;2022-12-10T17:28:59;17.30;38.20
21171;DHT22;10743;52.160;20.910;2022-12-10T17:31:29;17.20;38.10
21171;DHT22;10743;52.160;20.910;2022-12-10T17:33:57;17.20;38.10
21171;DHT22;10743;52.160;20.910;2022-12-10T17:36:24;17.20;38.20
21171;DHT22;10743;52.160;20.910;2022-12-10T17:41:18;17.20;37.40
21171;DHT22;10743;52.160;20.910;2022-12-10T17:43:45;17.20;38.10
21171;DHT22;10743;52.160;20.910;2022-12-10T17:48:48;17.20;37.40
21171;DHT22;10743;52.160;20.910;2022-12-10T17:51:15;17.20;38.10
21171;DHT22;10743;52.160;20.910;2022-12-10T17:53:42;17.20;38.70
21171;DHT22;10743;52.160;20.910;2022-12-10T17:56:29;17.20;39.00
21171;DHT22;10743;52.160;20.910;2022-12-10T17:58:57;17.20;38.00
21171;DHT22;10743;52.160;20.910;2022-12-10T18:01:24;17.20;38.10
21171;DHT22;10743;52.160;20.910;2022-12-10T18:03:57;17.20;38.10
21171;DHT22;10743;52.160;20.910;2022-12-10T18:06:27;17.20;37.60
21171;DHT22;10743;52.160;20.910;2022-12-10T18:08:59;17.20;38.00
21171;DHT22;10743;52.160;20.910;2022-12-10T18:11:35;17.20;37.90
21171;DHT22;10743;52.160;20.910;2022-12-10T18:14:02;17.20;37.90
21171;DHT22;10743;52.160;20.910;2022-12-10T18:16:31;17.20;37.30
21171;DHT22;10743;52.160;20.910;2022-12-10T18:19:02;17.20;38.00
21171;DHT22;10743;52.160;20.910;2022-12-10T18:21:32;17.20;37.90
21171;DHT22;10743;52.160;20.910;2022-12-10T18:24:00;17.20;37.90
21171;DHT22;10743;52.160;20.910;2022-12-10T18:26:27;17.30;37.60
21171;DHT22;10743;52.160;20.910;2022-12-10T18:28:59;17.20;37.90
21171;DHT22;10743;52.160;20.910;2022-12-10T18:31:30;17.20;37.90
21171;DHT22;10743;52.160;20.910;2022-12-10T18:34:05;17.30;37.30